Terminal Aerodrome Forecast
Issued by NWS Flagstaff, AZ

Home | Current Version | Previous Version | Text Only | Print | Product List | Glossary On
Versions: 1 2 3 4 5 6 7 8 9 10 11 12 13 14 15 16 17
000
FTUS45 KFGZ 131100
TAFINW
TAF
KINW 131132Z 1312/1412 16009KT P6SM BKN120
     FM131700 10009KT P6SM SCT090 BKN110 PROB30 1321/1403 VRB15G25KT
      5SM TSRA BKN060CB OVC070
     FM140300 16007KT P6SM BKN110=

USA.gov is the U.S. government's official web portal to all federal, state and local government web resources and services.